sensor_id;sensor_type;location;lat;lon;timestamp;P1;durP1;ratioP1;P2;durP2;ratioP2
61685;SDS011;47592;45.904;8.978;2023-11-18T00:01:24;0.10;;;0.10;;
61685;SDS011;47592;45.904;8.978;2023-11-18T00:03:53;0.10;;;0.00;;
61685;SDS011;47592;45.904;8.978;2023-11-18T00:06:20;1.00;;;0.20;;
61685;SDS011;47592;45.904;8.978;2023-11-18T00:08:51;0.22;;;0.13;;
61685;SDS011;47592;45.904;8.978;2023-11-18T00:11:17;0.28;;;0.10;;
61685;SDS011;47592;45.904;8.978;2023-11-18T00:13:47;0.00;;;0.00;;
61685;SDS011;47592;45.904;8.978;2023-11-18T00:16:12;0.10;;;0.10;;
61685;SDS011;47592;45.904;8.978;2023-11-18T00:18:42;0.68;;;0.20;;
61685;SDS011;47592;45.904;8.978;2023-11-18T00:21:07;0.20;;;0.17;;
61685;SDS011;47592;45.904;8.978;2023-11-18T00:23:35;0.22;;;0.10;;
61685;SDS011;47592;45.904;8.978;2023-11-18T00:26:01;0.10;;;0.10;;
61685;SDS011;47592;45.904;8.978;2023-11-18T00:28:27;0.00;;;0.00;;
61685;SDS011;47592;45.904;8.978;2023-11-18T00:30:55;0.30;;;0.15;;
61685;SDS011;47592;45.904;8.978;2023-11-18T00:33:21;0.15;;;0.10;;
61685;SDS011;47592;45.904;8.978;2023-11-18T00:35:46;0.32;;;0.10;;
61685;SDS011;47592;45.904;8.978;2023-11-18T00:38:14;1.13;;;0.10;;
61685;SDS011;47592;45.904;8.978;2023-11-18T00:40:42;0.25;;;0.08;;
61685;SDS011;47592;45.904;8.978;2023-11-18T00:43:10;0.10;;;0.03;;
61685;SDS011;47592;45.904;8.978;2023-11-18T00:45:36;0.20;;;0.10;;
61685;SDS011;47592;45.904;8.978;2023-11-18T00:48:01;0.57;;;0.10;;
61685;SDS011;47592;45.904;8.978;2023-11-18T00:50:26;1.02;;;0.30;;
61685;SDS011;47592;45.904;8.978;2023-11-18T00:52:52;0.93;;;0.20;;
61685;SDS011;47592;45.904;8.978;2023-11-18T00:55:17;0.50;;;0.15;;
61685;SDS011;47592;45.904;8.978;2023-11-18T00:57:43;0.20;;;0.10;;
61685;SDS011;47592;45.904;8.978;2023-11-18T01:00:12;0.68;;;0.10;;
61685;SDS011;47592;45.904;8.978;2023-11-18T01:02:43;0.60;;;0.10;;
61685;SDS011;47592;45.904;8.978;2023-11-18T01:05:09;0.25;;;0.10;;
61685;SDS011;47592;45.904;8.978;2023-11-18T01:07:37;0.40;;;0.10;;
61685;SDS011;47592;45.904;8.978;2023-11-18T01:10:03;0.03;;;0.03;;
61685;SDS011;47592;45.904;8.978;2023-11-18T01:12:31;0.20;;;0.00;;
61685;SDS011;47592;45.904;8.978;2023-11-18T01:14:56;0.25;;;0.08;;
61685;SDS011;47592;45.904;8.978;2023-11-18T01:17:22;0.40;;;0.10;;
61685;SDS011;47592;45.904;8.978;2023-11-18T01:19:47;1.40;;;0.10;;
61685;SDS011;47592;45.904;8.978;2023-11-18T01:22:13;0.73;;;0.20;;
61685;SDS011;47592;45.904;8.978;2023-11-18T01:24:38;1.02;;;0.20;;
61685;SDS011;47592;45.904;8.978;2023-11-18T01:27:04;0.30;;;0.10;;
61685;SDS011;47592;45.904;8.978;2023-11-18T01:29:30;0.32;;;0.10;;
61685;SDS011;47592;45.904;8.978;2023-11-18T01:31:56;0.22;;;0.13;;
61685;SDS011;47592;45.904;8.978;2023-11-18T01:34:26;0.40;;;0.10;;
61685;SDS011;47592;45.904;8.978;2023-11-18T01:36:53;0.05;;;0.00;;
61685;SDS011;47592;45.904;8.978;2023-11-18T01:39:18;1.35;;;0.20;;
61685;SDS011;47592;45.904;8.978;2023-11-18T01:41:46;0.08;;;0.08;;
61685;SDS011;47592;45.904;8.978;2023-11-18T01:44:11;0.20;;;0.00;;
61685;SDS011;47592;45.904;8.978;2023-11-18T01:46:40;0.25;;;0.10;;
61685;SDS011;47592;45.904;8.978;2023-11-18T01:51:35;0.00;;;0.00;;
61685;SDS011;47592;45.904;8.978;2023-11-18T01:54:01;0.08;;;0.08;;
61685;SDS011;47592;45.904;8.978;2023-11-18T01:56:27;0.30;;;0.10;;
61685;SDS011;47592;45.904;8.978;2023-11-18T01:58:53;0.32;;;0.10;;
61685;SDS011;47592;45.904;8.978;2023-11-18T02:01:19;0.68;;;0.13;;
61685;SDS011;47592;45.904;8.978;2023-11-18T02:03:44;0.20;;;0.10;;
61685;SDS011;47592;45.904;8.978;2023-11-18T02:06:12;0.22;;;0.10;;
61685;SDS011;47592;45.904;8.978;2023-11-18T02:08:38;0.20;;;0.08;;
61685;SDS011;47592;45.904;8.978;2023-11-18T02:13:43;0.45;;;0.20;;
61685;SDS011;47592;45.904;8.978;2023-11-18T02:16:12;0.73;;;0.10;;
61685;SDS011;47592;45.904;8.978;2023-11-18T02:18:38;0.10;;;0.10;;
61685;SDS011;47592;45.904;8.978;2023-11-18T02:21:05;0.73;;;0.10;;
61685;SDS011;47592;45.904;8.978;2023-11-18T02:23:33;0.28;;;0.10;;
61685;SDS011;47592;45.904;8.978;2023-11-18T02:25:58;0.30;;;0.10;;
61685;SDS011;47592;45.904;8.978;2023-11-18T02:28:26;0.52;;;0.10;;
61685;SDS011;47592;45.904;8.978;2023-11-18T02:30:56;0.10;;;0.10;;
61685;SDS011;47592;45.904;8.978;2023-11-18T02:33:31;0.30;;;0.10;;
61685;SDS011;47592;45.904;8.978;2023-11-18T02:36:02;0.20;;;0.10;;
61685;SDS011;47592;45.904;8.978;2023-11-18T02:38:46;0.10;;;0.10;;
61685;SDS011;47592;45.904;8.978;2023-11-18T02:41:14;0.00;;;0.00;;
61685;SDS011;47592;45.904;8.978;2023-11-18T02:43:41;0.73;;;0.10;;
61685;SDS011;47592;45.904;8.978;2023-11-18T02:46:10;0.30;;;0.10;;
61685;SDS011;47592;45.904;8.978;2023-11-18T02:48:38;0.25;;;0.10;;
61685;SDS011;47592;45.904;8.978;2023-11-18T02:51:11;0.25;;;0.10;;
61685;SDS011;47592;45.904;8.978;2023-11-18T02:53:37;0.30;;;0.10;;
61685;SDS011;47592;45.904;8.978;2023-11-18T02:56:02;0.35;;;0.10;;
61685;SDS011;47592;45.904;8.978;2023-11-18T02:58:32;0.10;;;0.10;;
61685;SDS011;47592;45.904;8.978;2023-11-18T03:00:58;0.03;;;0.03;;
61685;SDS011;47592;45.904;8.978;2023-11-18T03:03:26;0.10;;;0.10;;
61685;SDS011;47592;45.904;8.978;2023-11-18T03:05:53;0.22;;;0.00;;
61685;SDS011;47592;45.904;8.978;2023-11-18T03:08:21;0.35;;;0.15;;
61685;SDS011;47592;45.904;8.978;2023-11-18T03:10:46;0.47;;;0.10;;
61685;SDS011;47592;45.904;8.978;2023-11-18T03:13:12;0.32;;;0.10;;
61685;SDS011;47592;45.904;8.978;2023-11-18T03:15:37;0.10;;;0.10;;
61685;SDS011;47592;45.904;8.978;2023-11-18T03:18:05;0.10;;;0.10;;
61685;SDS011;47592;45.904;8.978;2023-11-18T03:20:30;0.32;;;0.10;;
61685;SDS011;47592;45.904;8.978;2023-11-18T03:22:58;0.10;;;0.10;;
61685;SDS011;47592;45.904;8.978;2023-11-18T03:25:25;0.20;;;0.00;;
61685;SDS011;47592;45.904;8.978;2023-11-18T03:27:51;0.45;;;0.10;;
61685;SDS011;47592;45.904;8.978;2023-11-18T03:30:19;0.28;;;0.10;;
61685;SDS011;47592;45.904;8.978;2023-11-18T03:32:47;0.10;;;0.00;;
61685;SDS011;47592;45.904;8.978;2023-11-18T03:35:15;0.10;;;0.10;;
61685;SDS011;47592;45.904;8.978;2023-11-18T03:37:43;0.00;;;0.00;;
61685;SDS011;47592;45.904;8.978;2023-11-18T03:40:12;0.10;;;0.10;;
61685;SDS011;47592;45.904;8.978;2023-11-18T03:42:43;0.17;;;0.10;;
61685;SDS011;47592;45.904;8.978;2023-11-18T03:45:11;0.20;;;0.10;;
61685;SDS011;47592;45.904;8.978;2023-11-18T03:47:37;0.10;;;0.10;;
61685;SDS011;47592;45.904;8.978;2023-11-18T03:50:02;0.10;;;0.00;;
61685;SDS011;47592;45.904;8.978;2023-11-18T03:52:28;0.22;;;0.10;;
61685;SDS011;47592;45.904;8.978;2023-11-18T03:54:54;0.10;;;0.10;;
61685;SDS011;47592;45.904;8.978;2023-11-18T03:57:22;0.52;;;0.10;;
61685;SDS011;47592;45.904;8.978;2023-11-18T03:59:47;0.20;;;0.10;;
61685;SDS011;47592;45.904;8.978;2023-11-18T04:02:13;0.10;;;0.10;;
61685;SDS011;47592;45.904;8.978;2023-11-18T04:04:41;0.22;;;0.10;;
61685;SDS011;47592;45.904;8.978;2023-11-18T04:07:06;0.15;;;0.10;;
61685;SDS011;47592;45.904;8.978;2023-11-18T04:09:32;0.00;;;0.00;;
61685;SDS011;47592;45.904;8.978;2023-11-18T04:11:57;0.10;;;0.10;;
61685;SDS011;47592;45.904;8.978;2023-11-18T04:14:23;0.00;;;0.00;;
61685;SDS011;47592;45.904;8.978;2023-11-18T04:16:50;0.22;;;0.10;;
61685;SDS011;47592;45.904;8.978;2023-11-18T04:19:16;0.00;;;0.00;;
61685;SDS011;47592;45.904;8.978;2023-11-18T04:21:43;0.10;;;0.10;;
61685;SDS011;47592;45.904;8.978;2023-11-18T04:24:13;0.35;;;0.10;;
61685;SDS011;47592;45.904;8.978;2023-11-18T04:26:40;0.13;;;0.03;;
61685;SDS011;47592;45.904;8.978;2023-11-18T04:29:05;0.10;;;0.10;;
61685;SDS011;47592;45.904;8.978;2023-11-18T04:31:30;0.10;;;0.00;;
61685;SDS011;47592;45.904;8.978;2023-11-18T04:33:56;0.22;;;0.10;;
61685;SDS011;47592;45.904;8.978;2023-11-18T04:36:21;0.00;;;0.00;;
61685;SDS011;47592;45.904;8.978;2023-11-18T04:38:47;0.35;;;0.10;;
61685;SDS011;47592;45.904;8.978;2023-11-18T04:41:13;0.15;;;0.10;;
61685;SDS011;47592;45.904;8.978;2023-11-18T04:43:41;0.47;;;0.10;;
61685;SDS011;47592;45.904;8.978;2023-11-18T04:46:07;0.00;;;0.00;;
61685;SDS011;47592;45.904;8.978;2023-11-18T04:48:33;0.30;;;0.10;;
61685;SDS011;47592;45.904;8.978;2023-11-18T04:51:00;0.30;;;0.10;;
61685;SDS011;47592;45.904;8.978;2023-11-18T04:53:28;0.10;;;0.05;;
61685;SDS011;47592;45.904;8.978;2023-11-18T04:55:54;0.25;;;0.10;;
61685;SDS011;47592;45.904;8.978;2023-11-18T04:58:20;0.38;;;0.10;;
61685;SDS011;47592;45.904;8.978;2023-11-18T05:00:50;0.20;;;0.10;;
61685;SDS011;47592;45.904;8.978;2023-11-18T05:03:20;0.20;;;0.10;;
61685;SDS011;47592;45.904;8.978;2023-11-18T05:05:46;0.20;;;0.10;;
61685;SDS011;47592;45.904;8.978;2023-11-18T05:08:18;1.13;;;0.10;;
61685;SDS011;47592;45.904;8.978;2023-11-18T05:10:49;1.05;;;0.08;;
61685;SDS011;47592;45.904;8.978;2023-11-18T05:13:17;0.10;;;0.00;;
61685;SDS011;47592;45.904;8.978;2023-11-18T05:15:47;0.13;;;0.10;;
61685;SDS011;47592;45.904;8.978;2023-11-18T05:18:12;0.22;;;0.10;;
61685;SDS011;47592;45.904;8.978;2023-11-18T05:20:42;0.20;;;0.10;;
61685;SDS011;47592;45.904;8.978;2023-11-18T05:23:15;0.10;;;0.10;;
61685;SDS011;47592;45.904;8.978;2023-11-18T05:25:41;0.38;;;0.10;;
61685;SDS011;47592;45.904;8.978;2023-11-18T05:28:09;0.10;;;0.10;;
61685;SDS011;47592;45.904;8.978;2023-11-18T05:30:35;0.60;;;0.10;;
61685;SDS011;47592;45.904;8.978;2023-11-18T05:33:04;0.25;;;0.10;;
61685;SDS011;47592;45.904;8.978;2023-11-18T05:35:34;0.25;;;0.10;;
61685;SDS011;47592;45.904;8.978;2023-11-18T05:38:00;0.10;;;0.10;;
61685;SDS011;47592;45.904;8.978;2023-11-18T05:40:28;0.15;;;0.10;;
61685;SDS011;47592;45.904;8.978;2023-11-18T05:42:54;0.20;;;0.10;;
61685;SDS011;47592;45.904;8.978;2023-11-18T05:45:20;0.20;;;0.10;;
61685;SDS011;47592;45.904;8.978;2023-11-18T05:48:11;0.38;;;0.10;;
61685;SDS011;47592;45.904;8.978;2023-11-18T05:50:39;0.20;;;0.00;;
61685;SDS011;47592;45.904;8.978;2023-11-18T05:53:09;0.13;;;0.10;;
61685;SDS011;47592;45.904;8.978;2023-11-18T05:55:34;0.35;;;0.10;;
61685;SDS011;47592;45.904;8.978;2023-11-18T05:57:59;0.20;;;0.10;;
61685;SDS011;47592;45.904;8.978;2023-11-18T06:00:25;0.45;;;0.10;;
61685;SDS011;47592;45.904;8.978;2023-11-18T06:02:51;0.77;;;0.13;;
61685;SDS011;47592;45.904;8.978;2023-11-18T06:05:16;0.10;;;0.10;;
61685;SDS011;47592;45.904;8.978;2023-11-18T06:07:44;0.38;;;0.10;;
61685;SDS011;47592;45.904;8.978;2023-11-18T06:10:12;0.32;;;0.10;;
61685;SDS011;47592;45.904;8.978;2023-11-18T06:12:39;0.63;;;0.10;;
61685;SDS011;47592;45.904;8.978;2023-11-18T06:15:06;0.10;;;0.10;;
61685;SDS011;47592;45.904;8.978;2023-11-18T06:17:33;0.32;;;0.10;;
61685;SDS011;47592;45.904;8.978;2023-11-18T06:20:02;0.20;;;0.10;;
61685;SDS011;47592;45.904;8.978;2023-11-18T06:22:33;0.43;;;0.15;;
61685;SDS011;47592;45.904;8.978;2023-11-18T06:25:01;3.13;;;0.20;;
61685;SDS011;47592;45.904;8.978;2023-11-18T06:27:27;0.57;;;0.20;;
61685;SDS011;47592;45.904;8.978;2023-11-18T06:29:53;0.10;;;0.10;;
61685;SDS011;47592;45.904;8.978;2023-11-18T06:32:19;0.20;;;0.10;;
61685;SDS011;47592;45.904;8.978;2023-11-18T06:34:45;0.35;;;0.10;;
61685;SDS011;47592;45.904;8.978;2023-11-18T06:37:11;0.52;;;0.20;;
61685;SDS011;47592;45.904;8.978;2023-11-18T06:39:40;0.10;;;0.00;;
61685;SDS011;47592;45.904;8.978;2023-11-18T06:42:09;0.30;;;0.10;;
61685;SDS011;47592;45.904;8.978;2023-11-18T06:44:36;0.00;;;0.00;;
61685;SDS011;47592;45.904;8.978;2023-11-18T06:47:06;0.45;;;0.13;;
61685;SDS011;47592;45.904;8.978;2023-11-18T06:49:32;0.00;;;0.00;;
61685;SDS011;47592;45.904;8.978;2023-11-18T06:52:00;0.22;;;0.10;;
61685;SDS011;47592;45.904;8.978;2023-11-18T06:54:31;0.55;;;0.10;;
61685;SDS011;47592;45.904;8.978;2023-11-18T06:56:59;0.10;;;0.10;;
61685;SDS011;47592;45.904;8.978;2023-11-18T06:59:28;0.73;;;0.20;;
61685;SDS011;47592;45.904;8.978;2023-11-18T07:01:55;0.22;;;0.10;;
61685;SDS011;47592;45.904;8.978;2023-11-18T07:04:21;1.10;;;0.10;;
61685;SDS011;47592;45.904;8.978;2023-11-18T07:06:49;0.28;;;0.10;;
61685;SDS011;47592;45.904;8.978;2023-11-18T07:09:17;0.30;;;0.10;;
61685;SDS011;47592;45.904;8.978;2023-11-18T07:11:43;0.10;;;0.10;;
61685;SDS011;47592;45.904;8.978;2023-11-18T07:14:09;0.55;;;0.20;;
61685;SDS011;47592;45.904;8.978;2023-11-18T07:16:37;0.35;;;0.10;;
61685;SDS011;47592;45.904;8.978;2023-11-18T07:19:04;0.10;;;0.10;;
61685;SDS011;47592;45.904;8.978;2023-11-18T07:21:32;0.75;;;0.17;;
61685;SDS011;47592;45.904;8.978;2023-11-18T07:23:58;0.10;;;0.10;;
61685;SDS011;47592;45.904;8.978;2023-11-18T07:26:24;0.28;;;0.10;;
61685;SDS011;47592;45.904;8.978;2023-11-18T07:28:51;0.63;;;0.20;;
61685;SDS011;47592;45.904;8.978;2023-11-18T07:31:17;0.30;;;0.10;;
61685;SDS011;47592;45.904;8.978;2023-11-18T07:33:44;1.38;;;0.20;;
61685;SDS011;47592;45.904;8.978;2023-11-18T07:36:14;0.73;;;0.20;;
61685;SDS011;47592;45.904;8.978;2023-11-18T07:38:45;0.32;;;0.17;;
61685;SDS011;47592;45.904;8.978;2023-11-18T07:41:13;0.75;;;0.20;;
61685;SDS011;47592;45.904;8.978;2023-11-18T07:43:56;0.17;;;0.17;;
61685;SDS011;47592;45.904;8.978;2023-11-18T07:46:22;0.20;;;0.15;;
61685;SDS011;47592;45.904;8.978;2023-11-18T07:48:51;0.93;;;0.20;;
61685;SDS011;47592;45.904;8.978;2023-11-18T07:51:17;0.82;;;0.20;;
61685;SDS011;47592;45.904;8.978;2023-11-18T07:53:49;0.65;;;0.20;;
61685;SDS011;47592;45.904;8.978;2023-11-18T07:56:17;1.40;;;0.20;;
61685;SDS011;47592;45.904;8.978;2023-11-18T07:58:43;0.50;;;0.20;;
61685;SDS011;47592;45.904;8.978;2023-11-18T08:01:12;0.10;;;0.10;;
61685;SDS011;47592;45.904;8.978;2023-11-18T08:03:38;2.55;;;0.88;;
61685;SDS011;47592;45.904;8.978;2023-11-18T08:06:06;1.67;;;0.45;;
61685;SDS011;47592;45.904;8.978;2023-11-18T08:08:32;0.52;;;0.20;;
61685;SDS011;47592;45.904;8.978;2023-11-18T08:11:08;0.10;;;0.10;;
61685;SDS011;47592;45.904;8.978;2023-11-18T08:13:37;0.63;;;0.20;;
61685;SDS011;47592;45.904;8.978;2023-11-18T08:16:03;5.18;;;1.52;;
61685;SDS011;47592;45.904;8.978;2023-11-18T08:18:29;0.52;;;0.20;;
61685;SDS011;47592;45.904;8.978;2023-11-18T08:20:56;1.52;;;0.30;;
61685;SDS011;47592;45.904;8.978;2023-11-18T08:23:22;5.80;;;2.08;;
61685;SDS011;47592;45.904;8.978;2023-11-18T08:25:48;12.90;;;5.60;;
61685;SDS011;47592;45.904;8.978;2023-11-18T08:28:15;16.58;;;6.70;;
61685;SDS011;47592;45.904;8.978;2023-11-18T08:30:41;11.18;;;4.25;;
61685;SDS011;47592;45.904;8.978;2023-11-18T08:33:09;4.03;;;1.15;;
61685;SDS011;47592;45.904;8.978;2023-11-18T08:35:37;9.05;;;3.70;;
61685;SDS011;47592;45.904;8.978;2023-11-18T08:38:02;9.20;;;3.63;;
61685;SDS011;47592;45.904;8.978;2023-11-18T08:40:29;4.55;;;1.30;;
61685;SDS011;47592;45.904;8.978;2023-11-18T08:42:54;4.00;;;1.30;;
61685;SDS011;47592;45.904;8.978;2023-11-18T08:45:23;6.00;;;2.80;;
61685;SDS011;47592;45.904;8.978;2023-11-18T08:47:57;3.60;;;0.90;;
61685;SDS011;47592;45.904;8.978;2023-11-18T08:50:23;2.80;;;0.90;;
61685;SDS011;47592;45.904;8.978;2023-11-18T08:52:53;3.92;;;1.23;;
61685;SDS011;47592;45.904;8.978;2023-11-18T08:55:23;4.10;;;0.70;;
61685;SDS011;47592;45.904;8.978;2023-11-18T08:58:08;2.35;;;0.70;;
61685;SDS011;47592;45.904;8.978;2023-11-18T09:00:46;1.52;;;0.40;;
61685;SDS011;47592;45.904;8.978;2023-11-18T09:03:18;2.28;;;0.60;;
61685;SDS011;47592;45.904;8.978;2023-11-18T09:06:08;0.65;;;0.30;;
61685;SDS011;47592;45.904;8.978;2023-11-18T09:08:44;1.42;;;0.40;;
61685;SDS011;47592;45.904;8.978;2023-11-18T09:11:12;0.93;;;0.38;;
61685;SDS011;47592;45.904;8.978;2023-11-18T09:13:46;1.08;;;0.30;;
61685;SDS011;47592;45.904;8.978;2023-11-18T09:16:18;1.52;;;0.50;;
61685;SDS011;47592;45.904;8.978;2023-11-18T09:18:47;1.50;;;0.50;;
61685;SDS011;47592;45.904;8.978;2023-11-18T09:21:13;1.25;;;0.40;;
61685;SDS011;47592;45.904;8.978;2023-11-18T09:23:44;2.60;;;0.60;;
61685;SDS011;47592;45.904;8.978;2023-11-18T09:26:13;1.58;;;0.40;;
61685;SDS011;47592;45.904;8.978;2023-11-18T09:28:41;2.38;;;0.70;;
61685;SDS011;47592;45.904;8.978;2023-11-18T09:31:09;2.20;;;0.60;;
61685;SDS011;47592;45.904;8.978;2023-11-18T09:33:38;1.85;;;0.50;;
61685;SDS011;47592;45.904;8.978;2023-11-18T09:36:12;2.28;;;0.50;;
61685;SDS011;47592;45.904;8.978;2023-11-18T09:38:38;1.75;;;0.45;;
61685;SDS011;47592;45.904;8.978;2023-11-18T09:41:07;0.38;;;0.20;;
61685;SDS011;47592;45.904;8.978;2023-11-18T09:43:39;1.23;;;0.30;;
61685;SDS011;47592;45.904;8.978;2023-11-18T09:46:26;1.17;;;0.40;;
61685;SDS011;47592;45.904;8.978;2023-11-18T09:51:58;0.75;;;0.22;;
61685;SDS011;47592;45.904;8.978;2023-11-18T10:00:07;1.45;;;0.30;;
61685;SDS011;47592;45.904;8.978;2023-11-18T10:02:48;2.05;;;0.32;;
61685;SDS011;47592;45.904;8.978;2023-11-18T10:05:18;1.65;;;0.40;;
61685;SDS011;47592;45.904;8.978;2023-11-18T10:07:51;0.63;;;0.20;;
61685;SDS011;47592;45.904;8.978;2023-11-18T10:10:17;0.98;;;0.30;;
61685;SDS011;47592;45.904;8.978;2023-11-18T10:12:49;0.75;;;0.25;;
61685;SDS011;47592;45.904;8.978;2023-11-18T10:15:22;1.70;;;0.20;;
61685;SDS011;47592;45.904;8.978;2023-11-18T10:17:52;0.65;;;0.20;;
61685;SDS011;47592;45.904;8.978;2023-11-18T10:20:50;1.13;;;0.35;;
61685;SDS011;47592;45.904;8.978;2023-11-18T10:23:17;0.95;;;0.20;;
61685;SDS011;47592;45.904;8.978;2023-11-18T10:28:27;1.25;;;0.40;;
61685;SDS011;47592;45.904;8.978;2023-11-18T10:31:07;2.00;;;0.38;;
61685;SDS011;47592;45.904;8.978;2023-11-18T10:33:35;6.25;;;0.70;;
61685;SDS011;47592;45.904;8.978;2023-11-18T10:36:07;1.02;;;0.30;;
61685;SDS011;47592;45.904;8.978;2023-11-18T10:38:47;1.13;;;0.30;;
61685;SDS011;47592;45.904;8.978;2023-11-18T10:41:14;2.28;;;0.70;;
61685;SDS011;47592;45.904;8.978;2023-11-18T10:43:42;0.57;;;0.30;;
61685;SDS011;47592;45.904;8.978;2023-11-18T10:51:08;1.08;;;0.25;;
61685;SDS011;47592;45.904;8.978;2023-11-18T10:53:40;0.77;;;0.28;;
61685;SDS011;47592;45.904;8.978;2023-11-18T10:56:25;1.48;;;0.40;;
61685;SDS011;47592;45.904;8.978;2023-11-18T11:01:33;0.63;;;0.20;;
61685;SDS011;47592;45.904;8.978;2023-11-18T11:04:14;1.67;;;0.40;;
61685;SDS011;47592;45.904;8.978;2023-11-18T11:06:45;0.57;;;0.30;;
61685;SDS011;47592;45.904;8.978;2023-11-18T11:09:20;1.02;;;0.30;;
61685;SDS011;47592;45.904;8.978;2023-11-18T11:11:53;0.73;;;0.20;;
61685;SDS011;47592;45.904;8.978;2023-11-18T11:14:22;0.47;;;0.20;;
61685;SDS011;47592;45.904;8.978;2023-11-18T11:17:00;1.50;;;0.40;;
61685;SDS011;47592;45.904;8.978;2023-11-18T11:19:38;1.20;;;0.38;;
61685;SDS011;47592;45.904;8.978;2023-11-18T11:22:13;0.90;;;0.30;;
61685;SDS011;47592;45.904;8.978;2023-11-18T11:24:54;1.52;;;0.40;;
61685;SDS011;47592;45.904;8.978;2023-11-18T11:27:34;2.00;;;0.70;;
61685;SDS011;47592;45.904;8.978;2023-11-18T11:30:23;1.77;;;0.50;;
61685;SDS011;47592;45.904;8.978;2023-11-18T11:33:18;2.38;;;0.60;;
61685;SDS011;47592;45.904;8.978;2023-11-18T11:35:56;0.93;;;0.30;;
61685;SDS011;47592;45.904;8.978;2023-11-18T11:38:27;0.93;;;0.30;;
61685;SDS011;47592;45.904;8.978;2023-11-18T11:40:54;1.45;;;0.40;;
61685;SDS011;47592;45.904;8.978;2023-11-18T11:43:22;1.60;;;0.30;;
61685;SDS011;47592;45.904;8.978;2023-11-18T11:45:53;1.30;;;0.30;;
61685;SDS011;47592;45.904;8.978;2023-11-18T11:48:22;0.93;;;0.28;;
61685;SDS011;47592;45.904;8.978;2023-11-18T11:53:32;1.20;;;0.32;;
61685;SDS011;47592;45.904;8.978;2023-11-18T11:56:01;0.88;;;0.30;;
61685;SDS011;47592;45.904;8.978;2023-11-18T11:58:38;1.85;;;0.30;;
61685;SDS011;47592;45.904;8.978;2023-11-18T12:01:16;1.15;;;0.30;;
61685;SDS011;47592;45.904;8.978;2023-11-18T12:04:01;0.82;;;0.30;;
61685;SDS011;47592;45.904;8.978;2023-11-18T12:06:32;1.20;;;0.28;;
61685;SDS011;47592;45.904;8.978;2023-11-18T12:09:00;0.53;;;0.20;;
61685;SDS011;47592;45.904;8.978;2023-11-18T12:11:33;0.22;;;0.13;;
61685;SDS011;47592;45.904;8.978;2023-11-18T12:14:05;0.90;;;0.20;;
61685;SDS011;47592;45.904;8.978;2023-11-18T12:17:05;1.10;;;0.30;;
61685;SDS011;47592;45.904;8.978;2023-11-18T12:19:38;1.83;;;0.38;;
61685;SDS011;47592;45.904;8.978;2023-11-18T12:22:17;1.83;;;0.40;;
61685;SDS011;47592;45.904;8.978;2023-11-18T12:25:29;3.20;;;0.40;;
61685;SDS011;47592;45.904;8.978;2023-11-18T12:27:56;0.45;;;0.20;;
61685;SDS011;47592;45.904;8.978;2023-11-18T12:33:03;1.35;;;0.30;;
61685;SDS011;47592;45.904;8.978;2023-11-18T12:38:49;1.05;;;0.15;;
61685;SDS011;47592;45.904;8.978;2023-11-18T12:41:38;1.13;;;0.35;;
61685;SDS011;47592;45.904;8.978;2023-11-18T12:46:56;1.10;;;0.30;;
61685;SDS011;47592;45.904;8.978;2023-11-18T12:49:46;3.63;;;0.40;;
61685;SDS011;47592;45.904;8.978;2023-11-18T12:52:19;3.53;;;1.25;;
61685;SDS011;47592;45.904;8.978;2023-11-18T12:54:46;1.30;;;0.30;;
61685;SDS011;47592;45.904;8.978;2023-11-18T12:57:16;1.13;;;0.40;;
61685;SDS011;47592;45.904;8.978;2023-11-18T12:59:49;2.50;;;0.50;;
61685;SDS011;47592;45.904;8.978;2023-11-18T13:02:15;1.90;;;0.32;;
61685;SDS011;47592;45.904;8.978;2023-11-18T13:04:47;1.05;;;0.30;;
61685;SDS011;47592;45.904;8.978;2023-11-18T13:09:42;0.52;;;0.15;;
61685;SDS011;47592;45.904;8.978;2023-11-18T13:12:10;0.77;;;0.28;;
61685;SDS011;47592;45.904;8.978;2023-11-18T13:14:47;0.30;;;0.20;;
61685;SDS011;47592;45.904;8.978;2023-11-18T13:17:14;0.60;;;0.22;;
61685;SDS011;47592;45.904;8.978;2023-11-18T13:19:43;1.25;;;0.30;;
61685;SDS011;47592;45.904;8.978;2023-11-18T13:22:13;0.88;;;0.28;;
61685;SDS011;47592;45.904;8.978;2023-11-18T13:24:41;0.75;;;0.30;;
61685;SDS011;47592;45.904;8.978;2023-11-18T13:27:14;0.60;;;0.30;;
61685;SDS011;47592;45.904;8.978;2023-11-18T13:29:44;2.60;;;0.50;;
61685;SDS011;47592;45.904;8.978;2023-11-18T13:32:18;1.27;;;0.30;;
61685;SDS011;47592;45.904;8.978;2023-11-18T13:34:48;0.65;;;0.20;;
61685;SDS011;47592;45.904;8.978;2023-11-18T13:37:18;0.45;;;0.15;;
61685;SDS011;47592;45.904;8.978;2023-11-18T13:39:56;1.08;;;0.20;;
61685;SDS011;47592;45.904;8.978;2023-11-18T13:42:24;0.73;;;0.30;;
61685;SDS011;47592;45.904;8.978;2023-11-18T13:44:53;0.93;;;0.30;;
61685;SDS011;47592;45.904;8.978;2023-11-18T13:47:22;0.90;;;0.30;;
61685;SDS011;47592;45.904;8.978;2023-11-18T13:49:53;0.97;;;0.40;;
61685;SDS011;47592;45.904;8.978;2023-11-18T13:52:23;0.80;;;0.25;;
61685;SDS011;47592;45.904;8.978;2023-11-18T13:54:51;1.95;;;0.38;;
61685;SDS011;47592;45.904;8.978;2023-11-18T13:57:22;1.05;;;0.30;;
61685;SDS011;47592;45.904;8.978;2023-11-18T13:59:51;0.88;;;0.20;;
61685;SDS011;47592;45.904;8.978;2023-11-18T14:02:22;0.45;;;0.17;;
61685;SDS011;47592;45.904;8.978;2023-11-18T14:04:47;1.13;;;0.30;;
61685;SDS011;47592;45.904;8.978;2023-11-18T14:07:14;1.27;;;0.20;;
61685;SDS011;47592;45.904;8.978;2023-11-18T14:09:48;0.95;;;0.20;;
61685;SDS011;47592;45.904;8.978;2023-11-18T14:12:16;0.90;;;0.22;;
61685;SDS011;47592;45.904;8.978;2023-11-18T14:14:41;1.13;;;0.30;;
61685;SDS011;47592;45.904;8.978;2023-11-18T14:17:09;1.30;;;0.30;;
61685;SDS011;47592;45.904;8.978;2023-11-18T14:19:37;0.77;;;0.30;;
61685;SDS011;47592;45.904;8.978;2023-11-18T14:22:06;0.90;;;0.30;;
61685;SDS011;47592;45.904;8.978;2023-11-18T14:24:34;1.15;;;0.22;;
61685;SDS011;47592;45.904;8.978;2023-11-18T14:27:03;0.93;;;0.35;;
61685;SDS011;47592;45.904;8.978;2023-11-18T14:29:32;0.50;;;0.20;;
61685;SDS011;47592;45.904;8.978;2023-11-18T14:32:04;2.40;;;0.30;;
61685;SDS011;47592;45.904;8.978;2023-11-18T14:34:33;3.75;;;1.27;;
61685;SDS011;47592;45.904;8.978;2023-11-18T14:37:01;9.63;;;4.53;;
61685;SDS011;47592;45.904;8.978;2023-11-18T14:39:27;10.40;;;4.20;;
61685;SDS011;47592;45.904;8.978;2023-11-18T14:41:55;9.15;;;3.83;;
61685;SDS011;47592;45.904;8.978;2023-11-18T14:44:20;9.48;;;3.70;;
61685;SDS011;47592;45.904;8.978;2023-11-18T14:46:46;8.25;;;3.03;;
61685;SDS011;47592;45.904;8.978;2023-11-18T14:49:13;7.53;;;2.50;;
61685;SDS011;47592;45.904;8.978;2023-11-18T14:51:39;9.73;;;2.53;;
61685;SDS011;47592;45.904;8.978;2023-11-18T14:54:05;8.40;;;2.40;;
61685;SDS011;47592;45.904;8.978;2023-11-18T14:56:30;6.53;;;2.08;;
61685;SDS011;47592;45.904;8.978;2023-11-18T14:58:56;6.82;;;1.85;;
61685;SDS011;47592;45.904;8.978;2023-11-18T15:01:28;5.70;;;1.73;;
61685;SDS011;47592;45.904;8.978;2023-11-18T15:03:56;6.40;;;1.98;;
61685;SDS011;47592;45.904;8.978;2023-11-18T15:06:27;7.97;;;2.20;;
61685;SDS011;47592;45.904;8.978;2023-11-18T15:08:52;6.00;;;2.53;;
61685;SDS011;47592;45.904;8.978;2023-11-18T15:11:22;5.32;;;2.10;;
61685;SDS011;47592;45.904;8.978;2023-11-18T15:13:48;7.00;;;2.53;;
61685;SDS011;47592;45.904;8.978;2023-11-18T15:16:14;7.05;;;3.58;;
61685;SDS011;47592;45.904;8.978;2023-11-18T15:18:43;7.87;;;3.73;;
61685;SDS011;47592;45.904;8.978;2023-11-18T15:21:12;8.80;;;4.88;;
61685;SDS011;47592;45.904;8.978;2023-11-18T15:23:40;8.60;;;5.13;;
61685;SDS011;47592;45.904;8.978;2023-11-18T15:26:06;8.52;;;4.15;;
61685;SDS011;47592;45.904;8.978;2023-11-18T15:28:33;6.95;;;3.40;;
61685;SDS011;47592;45.904;8.978;2023-11-18T15:31:00;6.60;;;2.70;;
61685;SDS011;47592;45.904;8.978;2023-11-18T15:33:27;6.00;;;2.80;;
61685;SDS011;47592;45.904;8.978;2023-11-18T15:35:56;6.60;;;3.15;;
61685;SDS011;47592;45.904;8.978;2023-11-18T15:38:21;6.15;;;2.80;;